createdAt,value
2023-03-12T00:02:27.348Z,10.38
2023-03-12T00:04:57.019Z,10.55
2023-03-12T00:07:26.404Z,10.77
2023-03-12T00:09:55.850Z,10.63
2023-03-12T00:12:25.302Z,8.85
2023-03-12T00:14:54.739Z,18.35
2023-03-12T00:17:27.042Z,13.40
2023-03-12T00:19:56.874Z,16.98
2023-03-12T00:22:26.850Z,11.70
2023-03-12T00:24:57.266Z,9.00
2023-03-12T00:27:27.839Z,11.07
2023-03-12T00:30:00.163Z,11.05
2023-03-12T00:32:32.330Z,13.77
2023-03-12T00:35:02.077Z,14.23
2023-03-12T00:37:33.072Z,13.82
2023-03-12T00:40:05.484Z,15.25
2023-03-12T00:42:35.345Z,18.80
2023-03-12T00:45:04.734Z,16.65
2023-03-12T00:47:36.729Z,19.55
2023-03-12T00:50:07.138Z,10.30
2023-03-12T00:52:36.530Z,10.98
2023-03-12T00:55:06.442Z,11.45
2023-03-12T00:57:35.892Z,12.52
2023-03-12T01:00:10.037Z,11.68
2023-03-12T01:02:42.832Z,15.23
2023-03-12T01:05:14.979Z,17.00
2023-03-12T01:07:44.905Z,12.13
2023-03-12T01:10:16.830Z,15.48
2023-03-12T01:12:46.676Z,16.70
2023-03-12T01:15:17.710Z,17.30
2023-03-12T01:17:50.099Z,14.02
2023-03-12T01:20:20.095Z,16.55
2023-03-12T01:22:49.468Z,20.33
2023-03-12T01:25:18.844Z,14.73
2023-03-12T01:27:48.390Z,17.85
2023-03-12T01:30:18.060Z,27.00
2023-03-12T01:32:50.100Z,53.05
2023-03-12T01:35:19.661Z,23.02
2023-03-12T01:37:49.084Z,17.88
2023-03-12T01:40:19.317Z,17.52
2023-03-12T01:42:54.926Z,18.10
2023-03-12T01:46:09.542Z,21.20
2023-03-12T01:48:44.581Z,18.63
2023-03-12T01:51:15.771Z,20.65
2023-03-12T01:53:47.908Z,22.17
2023-03-12T01:56:18.953Z,21.90
2023-03-12T01:58:53.117Z,20.00
2023-03-12T02:01:23.410Z,19.38
2023-03-12T02:03:56.931Z,18.15
2023-03-12T02:06:29.925Z,23.52
2023-03-12T02:09:00.152Z,18.25
2023-03-12T02:11:29.603Z,22.35
2023-03-12T02:13:59.048Z,18.23
2023-03-12T02:16:29.246Z,16.48
2023-03-12T02:19:03.744Z,17.88
2023-03-12T02:21:37.215Z,18.23
2023-03-12T02:24:11.280Z,19.58
2023-03-12T02:26:43.585Z,15.50
2023-03-12T02:29:13.803Z,23.40
2023-03-12T02:31:46.143Z,20.95
2023-03-12T02:34:15.618Z,20.33
2023-03-12T02:36:47.426Z,15.63
2023-03-12T02:39:19.693Z,22.15
2023-03-12T02:41:53.904Z,18.17
2023-03-12T02:44:24.448Z,20.55
2023-03-12T02:46:55.750Z,16.77
2023-03-12T02:49:27.054Z,22.83
2023-03-12T02:51:56.688Z,20.73
2023-03-12T02:54:27.143Z,27.88
2023-03-12T02:56:59.745Z,29.85
2023-03-12T02:59:29.267Z,20.58
2023-03-12T03:02:00.560Z,21.90
2023-03-12T03:04:30.499Z,22.27
2023-03-12T03:07:00.392Z,26.48
2023-03-12T03:09:30.279Z,17.52
2023-03-12T03:12:02.314Z,14.15
2023-03-12T03:14:31.711Z,21.30
2023-03-12T03:17:01.407Z,22.65
2023-03-12T03:19:30.779Z,33.88
2023-03-12T03:22:00.215Z,25.80
2023-03-12T03:24:29.633Z,22.13
2023-03-12T03:26:58.999Z,29.23
2023-03-12T03:29:31.103Z,22.02
2023-03-12T03:32:00.499Z,26.83
2023-03-12T03:34:30.168Z,28.67
2023-03-12T03:36:59.824Z,30.23
2023-03-12T03:39:31.266Z,29.50
2023-03-12T03:42:00.636Z,33.17
2023-03-12T03:44:33.029Z,37.10
2023-03-12T03:47:02.505Z,37.90
2023-03-12T03:49:31.958Z,33.22
2023-03-12T03:52:01.370Z,35.10
2023-03-12T03:54:31.207Z,35.65
2023-03-12T03:57:00.928Z,30.60
2023-03-12T03:59:32.924Z,32.83
2023-03-12T04:02:02.355Z,30.73
2023-03-12T04:04:34.750Z,25.10
2023-03-12T04:07:04.243Z,27.33
2023-03-12T04:09:33.633Z,29.80
2023-03-12T04:12:03.035Z,30.73
2023-03-12T04:14:35.059Z,29.15
2023-03-12T04:17:04.705Z,30.95
2023-03-12T04:19:34.095Z,28.75
2023-03-12T04:22:03.670Z,31.05
2023-03-12T04:24:33.259Z,28.67
2023-03-12T04:27:02.635Z,29.92
2023-03-12T04:29:32.010Z,30.38
2023-03-12T04:32:04.264Z,32.13
2023-03-12T04:34:33.906Z,24.92
2023-03-12T04:37:03.650Z,25.45
2023-03-12T04:39:33.092Z,27.67
2023-03-12T04:42:03.102Z,22.70
2023-03-12T04:44:32.469Z,30.60
2023-03-12T04:47:04.746Z,31.08
2023-03-12T04:49:34.378Z,31.05
2023-03-12T04:52:03.780Z,20.15
2023-03-12T04:54:33.457Z,25.90
2023-03-12T04:57:03.111Z,23.40
2023-03-12T04:59:32.535Z,25.90
2023-03-12T05:02:04.501Z,22.20
2023-03-12T05:04:33.987Z,21.38
2023-03-12T05:07:03.370Z,27.73
2023-03-12T05:09:32.924Z,22.40
2023-03-12T05:12:02.437Z,23.98
2023-03-12T05:14:32.127Z,22.00
2023-03-12T05:17:05.542Z,22.08
2023-03-12T05:19:35.010Z,28.45
2023-03-12T05:22:04.467Z,19.40
2023-03-12T05:24:33.968Z,22.38
2023-03-12T05:27:03.409Z,18.92
2023-03-12T05:29:35.837Z,21.08
2023-03-12T05:32:08.846Z,17.13
2023-03-12T05:34:38.473Z,20.38
2023-03-12T05:37:07.969Z,18.33
2023-03-12T05:39:38.111Z,23.10
2023-03-12T05:42:07.763Z,21.25
2023-03-12T05:44:37.503Z,18.92
2023-03-12T05:47:10.610Z,19.95
2023-03-12T05:49:40.161Z,23.85
2023-03-12T05:52:09.938Z,28.02
2023-03-12T05:54:39.492Z,20.67
2023-03-12T05:57:09.361Z,22.85
2023-03-12T05:59:38.818Z,26.73
2023-03-12T06:02:10.824Z,40.28
2023-03-12T06:04:40.306Z,24.02
2023-03-12T06:07:09.680Z,20.60
2023-03-12T06:09:39.581Z,17.90
2023-03-12T06:12:09.195Z,18.95
2023-03-12T06:14:38.660Z,23.40
2023-03-12T06:17:10.752Z,20.25
2023-03-12T06:19:40.239Z,17.58
2023-03-12T06:22:09.604Z,16.88
2023-03-12T06:24:41.065Z,20.67
2023-03-12T06:27:10.465Z,19.25
2023-03-12T06:29:40.265Z,18.23
2023-03-12T06:32:12.807Z,19.42
2023-03-12T06:34:42.263Z,20.30
2023-03-12T06:37:11.768Z,17.85
2023-03-12T06:39:41.784Z,16.65
2023-03-12T06:42:13.256Z,22.35
2023-03-12T06:44:42.718Z,17.42
2023-03-12T06:47:17.433Z,15.15
2023-03-12T06:49:47.228Z,24.80
2023-03-12T06:52:16.650Z,22.23
2023-03-12T06:54:46.341Z,21.52
2023-03-12T06:57:16.635Z,30.90
2023-03-12T06:59:48.109Z,23.88
2023-03-12T07:02:21.519Z,28.15
2023-03-12T07:04:51.296Z,22.55
2023-03-12T07:07:20.973Z,26.70
2023-03-12T07:09:50.624Z,24.58
2023-03-12T07:12:20.265Z,25.38
2023-03-12T07:14:49.657Z,25.52
2023-03-12T07:17:23.509Z,21.80
2023-03-12T07:19:53.036Z,24.83
2023-03-12T07:22:22.473Z,25.92
2023-03-12T07:24:51.891Z,22.60
2023-03-12T07:27:21.943Z,21.02
2023-03-12T07:29:52.829Z,21.88
2023-03-12T07:32:24.912Z,25.65
2023-03-12T07:34:54.586Z,24.05
2023-03-12T07:37:24.560Z,25.73
2023-03-12T07:39:54.917Z,24.77
2023-03-12T07:42:24.731Z,20.75
2023-03-12T07:44:54.541Z,22.20
2023-03-12T07:47:26.687Z,22.10
2023-03-12T07:49:56.673Z,22.55
2023-03-12T07:52:26.160Z,31.93
2023-03-12T07:54:56.652Z,26.45
2023-03-12T07:57:26.132Z,27.50
2023-03-12T07:59:55.709Z,19.30
2023-03-12T08:02:27.910Z,18.65
2023-03-12T08:05:00.013Z,31.23
2023-03-12T08:07:32.572Z,20.67
2023-03-12T08:10:02.105Z,19.67
2023-03-12T08:12:31.620Z,22.63
2023-03-12T08:15:01.164Z,19.00
2023-03-12T08:17:33.243Z,18.77
2023-03-12T08:20:03.012Z,16.33
2023-03-12T08:22:32.652Z,12.57
2023-03-12T08:25:02.091Z,18.33
2023-03-12T08:27:31.776Z,13.17
2023-03-12T08:30:01.273Z,13.93
2023-03-12T08:32:33.357Z,21.30
2023-03-12T08:35:05.219Z,10.17
2023-03-12T08:37:34.914Z,9.60
2023-03-12T08:40:05.636Z,18.03
2023-03-12T08:42:35.030Z,10.03
2023-03-12T08:45:04.415Z,13.20
2023-03-12T08:47:36.426Z,8.73
2023-03-12T08:50:06.501Z,10.20
2023-03-12T08:52:35.914Z,13.80
2023-03-12T08:55:05.998Z,22.67
2023-03-12T08:57:35.477Z,11.37
2023-03-12T09:00:05.461Z,8.37
2023-03-12T09:02:37.582Z,11.63
2023-03-12T09:05:08.498Z,11.10
2023-03-12T09:07:37.909Z,8.97
2023-03-12T09:10:08.874Z,8.50
2023-03-12T09:12:38.274Z,9.53
2023-03-12T09:15:09.301Z,8.50
2023-03-12T09:17:41.476Z,12.43
2023-03-12T09:20:14.563Z,14.43
2023-03-12T09:22:44.786Z,10.23
2023-03-12T09:25:14.937Z,7.70
2023-03-12T09:27:46.490Z,11.83
2023-03-12T09:30:18.283Z,10.17
2023-03-12T09:32:50.680Z,13.70
2023-03-12T09:35:20.464Z,9.90
2023-03-12T09:37:51.485Z,11.17
2023-03-12T09:40:23.381Z,14.07
2023-03-12T09:42:55.797Z,9.80
2023-03-12T09:45:27.179Z,10.20
2023-03-12T09:48:02.000Z,10.70
2023-03-12T09:50:33.699Z,12.30
2023-03-12T09:53:04.887Z,7.50
2023-03-12T09:55:38.774Z,14.80
2023-03-12T09:58:14.228Z,9.07
2023-03-12T10:00:45.826Z,8.40
2023-03-12T10:03:32.741Z,10.37
2023-03-12T10:06:09.803Z,9.43
2023-03-12T10:08:50.234Z,9.87
2023-03-12T10:11:27.974Z,7.80
2023-03-12T10:14:06.749Z,7.30
2023-03-12T10:16:47.434Z,6.23
2023-03-12T10:19:37.628Z,8.40
2023-03-12T10:22:10.755Z,7.43
2023-03-12T10:24:51.014Z,7.27
2023-03-12T10:27:21.240Z,9.97
2023-03-12T10:29:53.087Z,10.83
2023-03-12T10:32:25.176Z,6.20
2023-03-12T10:34:59.599Z,8.13
2023-03-12T10:37:31.681Z,8.80
2023-03-12T10:40:02.480Z,6.70
2023-03-12T10:42:32.814Z,8.30
2023-03-12T10:45:09.855Z,8.00
2023-03-12T10:47:40.812Z,9.73
2023-03-12T10:50:26.290Z,12.93
2023-03-12T10:52:57.220Z,7.20
2023-03-12T10:55:30.489Z,14.03
2023-03-12T10:58:00.126Z,7.70
2023-03-12T11:00:32.144Z,7.23
2023-03-12T11:03:03.713Z,9.93
2023-03-12T11:05:38.442Z,10.73
2023-03-12T11:08:23.427Z,13.87
2023-03-12T11:10:52.978Z,10.67
2023-03-12T11:13:28.585Z,11.60
2023-03-12T11:15:59.412Z,9.40
2023-03-12T11:18:37.100Z,11.13
2023-03-12T11:21:22.476Z,7.43
2023-03-12T11:24:08.941Z,13.07
2023-03-12T11:26:42.965Z,15.37
2023-03-12T11:29:19.414Z,9.13
2023-03-12T11:31:55.005Z,14.90
2023-03-12T11:34:26.980Z,11.80
2023-03-12T11:37:07.873Z,12.83
2023-03-12T11:39:45.988Z,15.90
2023-03-12T11:42:26.278Z,9.03
2023-03-12T11:45:04.160Z,8.40
2023-03-12T11:47:51.815Z,6.80
2023-03-12T11:50:30.824Z,7.60
2023-03-12T11:53:13.615Z,9.53
2023-03-12T11:55:48.318Z,6.37
2023-03-12T11:58:29.661Z,8.13
2023-03-12T12:01:03.477Z,15.40
2023-03-12T12:03:46.193Z,9.63
2023-03-12T12:06:20.792Z,9.07
2023-03-12T12:09:05.455Z,6.60
2023-03-12T12:11:45.649Z,8.17
2023-03-12T12:14:19.321Z,8.10
2023-03-12T12:16:59.899Z,6.90
2023-03-12T12:19:42.226Z,10.20
2023-03-12T12:22:25.948Z,12.13
2023-03-12T12:25:16.608Z,10.00
2023-03-12T12:27:50.724Z,9.23
2023-03-12T12:30:25.940Z,8.53
2023-03-12T12:33:11.495Z,6.73
2023-03-12T12:35:43.058Z,5.00
2023-03-12T12:38:15.948Z,5.30
2023-03-12T12:40:50.805Z,11.00
2023-03-12T12:43:28.233Z,12.00
2023-03-12T12:46:00.238Z,6.17
2023-03-12T12:48:34.014Z,7.00
2023-03-12T12:51:04.265Z,7.00
2023-03-12T12:53:40.036Z,9.23
2023-03-12T12:56:16.568Z,9.37
2023-03-12T12:58:54.356Z,6.57
2023-03-12T13:01:27.993Z,5.20
2023-03-12T13:04:02.703Z,6.23
2023-03-12T13:06:34.057Z,14.03
2023-03-12T13:09:16.821Z,5.90
2023-03-12T13:11:51.712Z,8.00
2023-03-12T13:14:39.965Z,18.53
2023-03-12T13:17:23.131Z,12.30
2023-03-12T13:20:01.194Z,8.10
2023-03-12T13:22:42.329Z,10.40
2023-03-12T13:25:23.482Z,6.53
2023-03-12T13:28:00.412Z,6.60
2023-03-12T13:30:48.410Z,6.80
2023-03-12T13:33:21.731Z,7.00
2023-03-12T13:36:06.427Z,7.40
2023-03-12T13:38:40.988Z,5.30
2023-03-12T13:41:10.551Z,6.37
2023-03-12T13:44:00.614Z,5.10
2023-03-12T13:46:38.469Z,9.03
2023-03-12T13:49:21.836Z,9.80
2023-03-12T13:52:01.459Z,8.80
2023-03-12T13:54:34.234Z,13.00
2023-03-12T13:57:06.344Z,4.50
2023-03-12T13:59:41.956Z,5.97
2023-03-12T14:02:19.495Z,5.87
2023-03-12T14:04:49.250Z,11.20
2023-03-12T14:07:41.607Z,6.53
2023-03-12T14:10:20.469Z,5.60
2023-03-12T14:12:57.347Z,8.93
2023-03-12T14:15:34.256Z,7.00
2023-03-12T14:18:05.708Z,5.73
2023-03-12T14:20:41.689Z,7.27
2023-03-12T14:23:19.203Z,4.47
2023-03-12T14:25:49.912Z,7.60
2023-03-12T14:28:21.671Z,6.03
2023-03-12T14:31:00.949Z,7.70
2023-03-12T14:33:35.089Z,7.37
2023-03-12T14:36:09.704Z,9.17
2023-03-12T14:38:41.888Z,7.47
2023-03-12T14:41:14.674Z,7.53
2023-03-12T14:43:46.519Z,9.07
2023-03-12T14:46:21.605Z,9.10
2023-03-12T14:48:52.264Z,11.00
2023-03-12T14:51:24.818Z,13.73
2023-03-12T14:53:54.839Z,13.40
2023-03-12T14:56:29.504Z,8.13
2023-03-12T14:59:00.342Z,9.23
2023-03-12T15:01:33.787Z,13.00
2023-03-12T15:04:04.947Z,9.07
2023-03-12T15:06:37.015Z,15.00
2023-03-12T15:09:09.148Z,12.03
2023-03-12T15:11:40.100Z,9.40
2023-03-12T15:14:11.532Z,9.70
2023-03-12T15:16:44.104Z,8.30
2023-03-12T15:19:15.395Z,16.73
2023-03-12T15:21:44.966Z,7.05
2023-03-12T15:24:15.403Z,9.30
2023-03-12T15:26:44.805Z,5.93
2023-03-12T15:29:26.818Z,6.30
2023-03-12T15:32:00.322Z,5.68
2023-03-12T15:34:33.570Z,10.33
2023-03-12T15:37:04.758Z,7.97
2023-03-12T15:39:35.629Z,6.15
2023-03-12T15:42:10.842Z,8.45
2023-03-12T15:44:49.022Z,6.07
2023-03-12T15:47:23.075Z,9.23
2023-03-12T15:49:53.948Z,6.70
2023-03-12T15:52:34.641Z,7.57
2023-03-12T15:55:07.648Z,9.02
2023-03-12T15:57:37.728Z,8.93
2023-03-12T16:00:22.175Z,12.07
2023-03-12T16:02:56.724Z,6.18
2023-03-12T16:05:28.848Z,8.20
2023-03-12T16:07:58.496Z,6.95
2023-03-12T16:10:29.793Z,9.40
2023-03-12T16:13:03.625Z,7.72
2023-03-12T16:15:35.357Z,6.87
2023-03-12T16:18:07.653Z,9.13
2023-03-12T16:20:37.098Z,11.57
2023-03-12T16:23:06.641Z,10.30
2023-03-12T16:25:36.430Z,11.32
2023-03-12T16:28:07.926Z,15.30
2023-03-12T16:30:39.330Z,14.80
2023-03-12T16:33:14.857Z,9.45
2023-03-12T16:35:44.315Z,11.67
2023-03-12T16:38:13.728Z,20.70
2023-03-12T16:40:46.117Z,12.13
2023-03-12T16:43:17.896Z,15.10
2023-03-12T16:45:48.507Z,7.75
2023-03-12T16:48:23.249Z,12.70
2023-03-12T16:50:54.229Z,9.30
2023-03-12T16:53:24.375Z,10.85
2023-03-12T16:55:55.604Z,13.07
2023-03-12T16:58:26.650Z,13.30
2023-03-12T17:00:57.497Z,11.90
2023-03-12T17:03:36.776Z,11.82
2023-03-12T17:06:09.152Z,11.30
2023-03-12T17:08:38.663Z,11.90
2023-03-12T17:11:16.151Z,13.70
2023-03-12T17:13:46.346Z,14.13
2023-03-12T17:16:15.875Z,11.50
2023-03-12T17:18:47.876Z,15.25
2023-03-12T17:21:19.658Z,11.77
2023-03-12T17:23:51.735Z,15.07
2023-03-12T17:26:21.757Z,16.20
2023-03-12T17:28:51.124Z,12.97
2023-03-12T17:31:21.268Z,14.98
2023-03-12T17:33:53.476Z,17.70
2023-03-12T17:36:23.072Z,17.60
2023-03-12T17:38:52.490Z,18.73
2023-03-12T17:41:26.968Z,18.53
2023-03-12T17:44:01.553Z,14.93
2023-03-12T17:46:31.435Z,14.70
2023-03-12T17:49:03.469Z,20.57
2023-03-12T17:51:32.873Z,10.87
2023-03-12T17:54:02.312Z,21.13
2023-03-12T17:56:31.741Z,30.83
2023-03-12T17:59:01.166Z,19.97
2023-03-12T18:01:30.582Z,78.10
2023-03-12T18:04:00.017Z,20.80
2023-03-12T18:06:32.018Z,17.57
2023-03-12T18:09:01.380Z,18.10
2023-03-12T18:11:30.855Z,14.50
2023-03-12T18:14:00.221Z,17.80
2023-03-12T18:16:29.681Z,21.60
2023-03-12T18:18:59.196Z,23.70
2023-03-12T18:21:28.942Z,32.37
2023-03-12T18:24:08.309Z,20.57
2023-03-12T18:26:42.674Z,22.30
2023-03-12T18:29:12.099Z,18.87
2023-03-12T18:31:41.836Z,25.93
2023-03-12T18:34:11.255Z,27.67
2023-03-12T18:36:40.669Z,27.57
2023-03-12T18:39:12.706Z,30.57
2023-03-12T18:41:42.299Z,31.20
2023-03-12T18:44:13.128Z,27.83
2023-03-12T18:46:42.588Z,34.50
2023-03-12T18:49:12.409Z,26.30
2023-03-12T18:51:42.007Z,30.40
2023-03-12T18:54:14.704Z,30.43
2023-03-12T18:56:44.143Z,34.50
2023-03-12T18:59:14.665Z,40.77
2023-03-12T19:01:44.297Z,44.53
2023-03-12T19:04:14.494Z,41.43
2023-03-12T19:06:51.170Z,40.13
2023-03-12T19:09:24.061Z,48.57
2023-03-12T19:11:53.472Z,47.97
2023-03-12T19:14:23.231Z,36.43
2023-03-12T19:16:52.881Z,38.67
2023-03-12T19:19:22.437Z,60.67
2023-03-12T19:21:51.950Z,27.23
2023-03-12T19:24:23.904Z,32.20
2023-03-12T19:26:53.542Z,59.43
2023-03-12T19:29:22.904Z,59.83
2023-03-12T19:31:52.333Z,65.77
2023-03-12T19:34:22.223Z,56.47
2023-03-12T19:36:51.576Z,59.00
2023-03-12T19:39:21.861Z,47.20
2023-03-12T19:41:54.023Z,45.10
2023-03-12T19:44:23.398Z,70.60
2023-03-12T19:46:52.870Z,75.80
2023-03-12T19:49:22.350Z,61.47
2023-03-12T19:51:52.035Z,71.70
2023-03-12T19:54:24.208Z,52.93
2023-03-12T19:56:56.314Z,57.60
2023-03-12T19:59:25.676Z,73.00
2023-03-12T20:01:55.064Z,74.67
2023-03-12T20:04:24.460Z,64.73
2023-03-12T20:06:54.116Z,91.37
2023-03-12T20:09:23.524Z,72.00
2023-03-12T20:11:52.930Z,90.83
2023-03-12T20:14:24.942Z,71.90
2023-03-12T20:16:54.696Z,72.50
2023-03-12T20:19:24.431Z,42.23
2023-03-12T20:21:55.080Z,70.43
2023-03-12T20:24:24.812Z,57.93
2023-03-12T20:26:54.187Z,75.67
2023-03-12T20:29:26.197Z,70.97
2023-03-12T20:31:55.911Z,84.30
2023-03-12T20:34:25.578Z,58.17
2023-03-12T20:36:54.954Z,84.27
2023-03-12T20:39:24.386Z,59.73
2023-03-12T20:41:53.812Z,82.33
2023-03-12T20:44:25.789Z,51.90
2023-03-12T20:46:55.227Z,77.43
2023-03-12T20:49:24.605Z,77.93
2023-03-12T20:51:54.308Z,68.53
2023-03-12T20:54:23.697Z,68.87
2023-03-12T20:56:55.946Z,37.83
2023-03-12T20:59:28.039Z,48.43
2023-03-12T21:01:57.458Z,65.17
2023-03-12T21:04:26.990Z,75.07
2023-03-12T21:06:56.399Z,62.03
2023-03-12T21:09:25.853Z,52.63
2023-03-12T21:11:56.065Z,70.63
2023-03-12T21:14:28.035Z,58.63
2023-03-12T21:16:57.850Z,43.33
2023-03-12T21:19:28.731Z,29.93
2023-03-12T21:21:58.176Z,64.43
2023-03-12T21:24:27.700Z,26.07
2023-03-12T21:26:57.080Z,43.00
2023-03-12T21:29:29.044Z,44.30
2023-03-12T21:31:58.580Z,50.30
2023-03-12T21:34:28.173Z,56.53
2023-03-12T21:37:00.372Z,58.60
2023-03-12T21:39:29.849Z,49.67
2023-03-12T21:41:59.320Z,44.03
2023-03-12T21:44:31.588Z,50.53
2023-03-12T21:47:01.191Z,59.60
2023-03-12T21:49:30.630Z,56.30
2023-03-12T21:52:00.276Z,43.77
2023-03-12T21:54:33.902Z,63.23
2023-03-12T21:57:03.573Z,59.07
2023-03-12T21:59:35.665Z,41.23
2023-03-12T22:02:05.075Z,61.00
2023-03-12T22:04:34.904Z,51.90
2023-03-12T22:07:04.549Z,44.77
2023-03-12T22:09:33.945Z,45.23
2023-03-12T22:12:03.987Z,54.23
2023-03-12T22:14:36.001Z,34.60
2023-03-12T22:17:05.428Z,46.70
2023-03-12T22:19:34.803Z,41.70
2023-03-12T22:22:04.508Z,42.37
2023-03-12T22:24:33.961Z,61.70
2023-03-12T22:27:06.559Z,35.50
2023-03-12T22:29:38.695Z,42.50
2023-03-12T22:32:08.234Z,31.13
2023-03-12T22:34:38.931Z,45.90
2023-03-12T22:37:08.408Z,44.27
2023-03-12T22:39:40.878Z,46.13
2023-03-12T22:42:10.295Z,55.30
2023-03-12T22:44:44.061Z,52.10
2023-03-12T22:47:13.493Z,47.60
2023-03-12T22:49:43.096Z,43.10
2023-03-12T22:52:12.479Z,55.83
2023-03-12T22:54:41.888Z,40.67
2023-03-12T22:57:11.371Z,35.50
2023-03-12T22:59:40.931Z,50.03
2023-03-12T23:02:13.183Z,28.83
2023-03-12T23:04:42.618Z,44.97
2023-03-12T23:07:14.867Z,44.60
2023-03-12T23:09:45.476Z,45.37
2023-03-12T23:12:14.829Z,44.73
2023-03-12T23:14:44.278Z,39.67
2023-03-12T23:17:16.563Z,43.93
2023-03-12T23:19:45.987Z,46.87
2023-03-12T23:22:15.444Z,37.30
2023-03-12T23:24:45.160Z,40.07
2023-03-12T23:27:14.544Z,42.27
2023-03-12T23:29:43.999Z,28.83
2023-03-12T23:32:17.016Z,30.97
2023-03-12T23:34:47.225Z,38.20
2023-03-12T23:37:16.852Z,29.00
2023-03-12T23:39:54.382Z,21.50
2023-03-12T23:42:24.483Z,33.13
2023-03-12T23:44:53.851Z,33.47
2023-03-12T23:47:26.142Z,22.53
2023-03-12T23:49:55.591Z,25.60
2023-03-12T23:52:25.224Z,26.40
2023-03-12T23:55:00.309Z,38.80
2023-03-12T23:57:29.830Z,21.70
2023-03-12T23:59:59.195Z,23.63
